Cadillac, Michigan
Current Conditions -  °F | °C
As of 2:35 PM on Thursday 23 Oct 2014 (Local Time) from KCAD Reporting Station
Clear Clear  
Wind Chill: 11°   Ceiling: Unl
Heat Index: 11°   Visibility: 10mi
Dew Point:   Wind: 7mph
Humidity: 68%   Direction: 230°SW
Pressure: 30.13"   Gusts: NA
Location:  44.26°N, 85.4°W
Report Text: KCAD 231835Z AUTO 23006KT 10SM CLR 11/05 A3013 RMK AO2 T01100053
Loading
Personal Weather Stations






























Interactive Weather Map New forecast layout! Learn more

10-Day Weather Forecast

Advertisements
Track Severe Weather on mobile